createdAt,value
2023-01-19T00:01:13.068Z,6.90
2023-01-19T00:06:07.501Z,6.93
2023-01-19T00:10:58.695Z,7.48
2023-01-19T00:15:49.399Z,7.61
2023-01-19T00:20:43.878Z,7.17
2023-01-19T00:25:34.582Z,7.45
2023-01-19T00:30:25.342Z,7.53
2023-01-19T00:35:15.030Z,7.50
2023-01-19T00:40:07.628Z,7.55
2023-01-19T00:44:57.218Z,7.44
2023-01-19T00:49:47.010Z,7.46
2023-01-19T00:54:36.807Z,7.50
2023-01-19T00:59:30.549Z,7.56
2023-01-19T01:04:21.052Z,7.61
2023-01-19T01:09:15.634Z,7.61
2023-01-19T01:14:06.184Z,7.57
2023-01-19T01:18:59.412Z,7.63
2023-01-19T01:23:51.560Z,7.58
2023-01-19T01:28:42.254Z,7.61
2023-01-19T01:33:40.530Z,7.56
2023-01-19T01:38:35.085Z,7.59
2023-01-19T01:43:27.429Z,7.07
2023-01-19T01:48:19.351Z,7.14
2023-01-19T01:53:11.839Z,7.13
2023-01-19T01:58:06.718Z,6.93
2023-01-19T02:03:01.745Z,7.41
2023-01-19T02:08:07.409Z,7.54
2023-01-19T02:13:15.219Z,7.62
2023-01-19T02:18:11.049Z,7.60
2023-01-19T02:23:03.896Z,7.09
2023-01-19T02:27:56.565Z,6.75
2023-01-19T02:32:47.344Z,6.72
2023-01-19T02:37:40.758Z,6.59
2023-01-19T02:42:33.346Z,6.63
2023-01-19T02:47:27.083Z,7.14
2023-01-19T02:52:19.261Z,6.99
2023-01-19T02:57:16.312Z,6.79
2023-01-19T03:02:20.039Z,6.69
2023-01-19T03:07:16.485Z,6.58
2023-01-19T03:12:12.527Z,5.97
2023-01-19T03:17:05.600Z,5.70
2023-01-19T03:21:59.147Z,5.80
2023-01-19T03:26:56.801Z,5.43
2023-01-19T03:31:49.739Z,5.45
2023-01-19T03:36:44.489Z,5.32
2023-01-19T03:41:40.936Z,5.34
2023-01-19T03:46:35.144Z,5.32
2023-01-19T03:51:26.664Z,5.35
2023-01-19T03:56:24.158Z,5.56
2023-01-19T04:01:14.882Z,5.51
2023-01-19T04:06:08.321Z,5.76
2023-01-19T04:11:01.854Z,5.65
2023-01-19T04:15:53.132Z,5.54
2023-01-19T04:20:44.874Z,5.69
2023-01-19T04:25:39.054Z,5.89
2023-01-19T04:30:29.986Z,5.94
2023-01-19T04:35:21.905Z,6.03
2023-01-19T04:40:14.359Z,6.25
2023-01-19T04:45:07.756Z,6.36
2023-01-19T04:49:59.218Z,6.40
2023-01-19T04:54:49.959Z,6.16
2023-01-19T04:59:40.566Z,6.33
2023-01-19T05:04:33.848Z,6.81
2023-01-19T05:09:25.268Z,6.90
2023-01-19T05:14:14.859Z,6.81
2023-01-19T05:19:04.817Z,6.84
2023-01-19T05:23:57.771Z,6.83
2023-01-19T05:28:50.943Z,6.93
2023-01-19T05:33:41.638Z,6.97
2023-01-19T05:38:35.981Z,7.01
2023-01-19T05:43:29.764Z,6.94
2023-01-19T05:48:20.701Z,6.95
2023-01-19T05:53:11.087Z,7.00
2023-01-19T05:58:01.855Z,7.04
2023-01-19T06:02:55.047Z,6.26
2023-01-19T06:07:45.430Z,6.23
2023-01-19T06:12:36.203Z,6.15
2023-01-19T06:17:27.333Z,6.10
2023-01-19T06:22:20.247Z,6.06
2023-01-19T06:27:12.143Z,5.99
2023-01-19T06:32:03.296Z,5.95
2023-01-19T06:36:56.499Z,5.99
2023-01-19T06:41:51.811Z,6.02
2023-01-19T06:46:49.207Z,6.00
2023-01-19T06:51:40.874Z,6.25
2023-01-19T06:56:31.417Z,6.54
2023-01-19T07:01:24.854Z,6.67
2023-01-19T07:06:16.339Z,6.66
2023-01-19T07:11:22.288Z,6.93
2023-01-19T07:16:18.456Z,6.47
2023-01-19T07:21:14.324Z,6.52
2023-01-19T07:26:04.754Z,6.57
2023-01-19T07:30:56.470Z,6.60
2023-01-19T07:35:50.064Z,6.65
2023-01-19T07:40:47.471Z,7.32
2023-01-19T07:45:51.323Z,6.76
2023-01-19T07:50:42.016Z,6.81
2023-01-19T07:55:33.086Z,6.78
2023-01-19T08:00:27.276Z,6.73
2023-01-19T08:05:19.979Z,6.71
2023-01-19T08:10:10.117Z,6.77
2023-01-19T08:14:59.712Z,6.82
2023-01-19T08:19:52.551Z,6.68
2023-01-19T08:24:43.379Z,6.89
2023-01-19T08:29:36.110Z,7.11
2023-01-19T08:34:27.104Z,6.67
2023-01-19T08:39:21.045Z,6.79
2023-01-19T08:44:20.363Z,6.58
2023-01-19T08:49:13.766Z,6.59
2023-01-19T08:54:07.147Z,6.60
2023-01-19T08:59:09.829Z,6.65
2023-01-19T09:04:00.505Z,6.98
2023-01-19T09:08:52.049Z,6.85
2023-01-19T09:13:51.940Z,6.89
2023-01-19T09:18:46.289Z,6.87
2023-01-19T09:23:40.267Z,6.96
2023-01-19T09:28:31.439Z,6.93
2023-01-19T09:33:26.350Z,7.10
2023-01-19T09:38:21.207Z,7.03
2023-01-19T09:43:21.589Z,7.08
2023-01-19T09:48:20.348Z,7.07
2023-01-19T09:53:20.439Z,7.34
2023-01-19T09:58:18.632Z,7.64
2023-01-19T10:03:16.863Z,8.27
2023-01-19T10:08:15.552Z,8.69
2023-01-19T10:13:33.209Z,9.07
2023-01-19T10:18:26.565Z,9.88
2023-01-19T10:23:45.155Z,10.67
2023-01-19T10:28:42.537Z,11.64
2023-01-19T10:33:33.017Z,11.93
2023-01-19T10:38:25.098Z,11.74
2023-01-19T10:43:30.719Z,11.21
2023-01-19T10:48:26.812Z,10.91
2023-01-19T10:53:26.225Z,10.79
2023-01-19T10:58:31.463Z,10.49
2023-01-19T11:03:31.171Z,10.38
2023-01-19T11:08:25.144Z,10.36
2023-01-19T11:13:17.114Z,10.23
2023-01-19T11:18:09.296Z,10.05
2023-01-19T11:23:27.348Z,10.15
2023-01-19T11:28:23.760Z,10.20
2023-01-19T11:33:29.298Z,9.81
2023-01-19T11:38:28.801Z,9.11
2023-01-19T11:43:21.509Z,8.97
2023-01-19T11:48:19.604Z,8.72
2023-01-19T11:53:28.735Z,8.82
2023-01-19T11:58:22.495Z,8.77
2023-01-19T12:03:16.242Z,8.74
2023-01-19T12:08:09.178Z,8.73
2023-01-19T12:13:00.046Z,8.79
2023-01-19T12:17:56.944Z,8.91
2023-01-19T12:22:51.534Z,8.99
2023-01-19T12:27:45.430Z,9.18
2023-01-19T12:32:39.494Z,9.43
2023-01-19T12:37:40.997Z,9.65
2023-01-19T12:42:32.219Z,9.39
2023-01-19T12:47:24.643Z,9.54
2023-01-19T12:52:34.421Z,9.54
2023-01-19T12:57:29.913Z,9.66
2023-01-19T13:02:37.180Z,9.48
2023-01-19T13:07:29.275Z,9.42
2023-01-19T13:12:24.762Z,9.40
2023-01-19T13:17:36.695Z,9.57
2023-01-19T13:22:46.561Z,9.71
2023-01-19T13:27:44.491Z,9.66
2023-01-19T13:32:37.969Z,9.56
2023-01-19T13:37:33.055Z,9.93
2023-01-19T13:42:29.267Z,9.88
2023-01-19T13:47:24.210Z,9.87
2023-01-19T13:52:17.657Z,9.83
2023-01-19T13:57:08.076Z,9.91
2023-01-19T14:02:20.909Z,9.81
2023-01-19T14:07:27.357Z,9.73
2023-01-19T14:12:19.954Z,9.86
2023-01-19T14:17:22.901Z,9.74
2023-01-19T14:22:15.858Z,9.62
2023-01-19T14:27:14.861Z,9.57
2023-01-19T14:32:16.154Z,9.65
2023-01-19T14:37:08.300Z,9.57
2023-01-19T14:42:03.991Z,9.54
2023-01-19T14:46:55.592Z,9.32
2023-01-19T14:51:48.221Z,9.39
2023-01-19T14:56:39.658Z,9.35
2023-01-19T15:01:33.450Z,9.42
2023-01-19T15:06:24.023Z,9.29
2023-01-19T15:11:16.198Z,9.26
2023-01-19T15:16:09.370Z,9.14
2023-01-19T15:21:06.143Z,8.94
2023-01-19T15:26:04.273Z,8.84
2023-01-19T15:30:59.865Z,8.67
2023-01-19T15:35:50.915Z,8.61
2023-01-19T15:40:49.527Z,8.51
2023-01-19T15:45:44.566Z,8.39
2023-01-19T15:50:35.003Z,8.23
2023-01-19T15:55:24.669Z,8.15
2023-01-19T16:00:22.884Z,8.33
2023-01-19T16:05:14.239Z,7.97
2023-01-19T16:10:05.961Z,7.87
2023-01-19T16:14:56.613Z,7.79
2023-01-19T16:19:50.056Z,7.79
2023-01-19T16:24:56.608Z,7.71
2023-01-19T16:29:47.456Z,7.64
2023-01-19T16:34:38.240Z,7.67
2023-01-19T16:39:30.662Z,7.54
2023-01-19T16:44:20.306Z,7.33
2023-01-19T16:49:14.624Z,7.24
2023-01-19T16:54:05.664Z,7.49
2023-01-19T16:59:00.127Z,7.20
2023-01-19T17:03:53.468Z,7.12
2023-01-19T17:08:44.989Z,7.12
2023-01-19T17:13:39.885Z,7.09
2023-01-19T17:18:35.885Z,7.35
2023-01-19T17:23:28.414Z,7.17
2023-01-19T17:28:20.976Z,6.95
2023-01-19T17:33:18.112Z,6.88
2023-01-19T17:38:11.141Z,6.74
2023-01-19T17:43:01.073Z,7.01
2023-01-19T17:47:54.027Z,7.08
2023-01-19T17:52:44.467Z,6.66
2023-01-19T17:57:48.304Z,6.76
2023-01-19T18:02:39.339Z,7.07
2023-01-19T18:07:34.230Z,6.69
2023-01-19T18:12:25.159Z,6.65
2023-01-19T18:17:22.097Z,6.56
2023-01-19T18:22:12.780Z,6.45
2023-01-19T18:27:03.395Z,6.43
2023-01-19T18:31:53.825Z,6.45
2023-01-19T18:36:47.328Z,6.43
2023-01-19T18:41:42.185Z,6.35
2023-01-19T18:46:32.337Z,6.30
2023-01-19T18:51:23.678Z,6.25
2023-01-19T18:56:20.085Z,6.26
2023-01-19T19:01:22.981Z,6.21
2023-01-19T19:06:13.417Z,6.45
2023-01-19T19:11:05.397Z,6.46
2023-01-19T19:16:07.468Z,6.44
2023-01-19T19:20:57.332Z,6.42
2023-01-19T19:25:47.103Z,6.63
2023-01-19T19:30:39.775Z,6.52
2023-01-19T19:35:32.680Z,6.52
2023-01-19T19:40:26.970Z,6.53
2023-01-19T19:45:19.298Z,6.47
2023-01-19T19:50:14.309Z,6.39
2023-01-19T19:55:09.801Z,6.40
2023-01-19T20:00:01.224Z,6.10
2023-01-19T20:04:53.426Z,6.31
2023-01-19T20:09:46.429Z,6.05
2023-01-19T20:14:42.858Z,5.90
2023-01-19T20:19:33.722Z,6.01
2023-01-19T20:24:25.858Z,5.97
2023-01-19T20:29:18.926Z,6.07
2023-01-19T20:34:14.295Z,6.21
2023-01-19T20:39:14.841Z,6.26
2023-01-19T20:44:06.278Z,6.21
2023-01-19T20:48:58.070Z,6.02
2023-01-19T20:53:52.895Z,6.30
2023-01-19T20:58:47.002Z,6.30
2023-01-19T21:03:39.058Z,6.07
2023-01-19T21:08:29.540Z,6.14
2023-01-19T21:13:26.948Z,5.89
2023-01-19T21:18:17.317Z,5.94
2023-01-19T21:23:07.390Z,5.97
2023-01-19T21:27:57.767Z,5.63
2023-01-19T21:32:51.679Z,5.59
2023-01-19T21:37:42.402Z,5.78
2023-01-19T21:42:33.227Z,5.71
2023-01-19T21:47:23.348Z,5.59
2023-01-19T21:52:19.980Z,5.57
2023-01-19T21:57:10.769Z,5.37
2023-01-19T22:02:02.129Z,5.33
2023-01-19T22:06:53.153Z,5.18
2023-01-19T22:11:46.680Z,5.01
2023-01-19T22:16:37.587Z,4.46
2023-01-19T22:21:30.949Z,4.45
2023-01-19T22:26:22.711Z,4.42
2023-01-19T22:31:18.176Z,4.09
2023-01-19T22:36:17.958Z,4.17
2023-01-19T22:41:28.576Z,4.19
2023-01-19T22:46:25.759Z,4.27
2023-01-19T22:51:16.944Z,4.18
2023-01-19T22:56:16.585Z,4.21
2023-01-19T23:01:12.026Z,4.27
2023-01-19T23:06:11.194Z,4.26
2023-01-19T23:11:02.416Z,4.25
2023-01-19T23:15:58.595Z,4.38
2023-01-19T23:20:51.727Z,4.50
2023-01-19T23:25:47.945Z,4.62
2023-01-19T23:30:41.296Z,4.70
2023-01-19T23:35:32.726Z,4.70
2023-01-19T23:40:24.742Z,4.78
2023-01-19T23:45:18.960Z,4.74
2023-01-19T23:50:12.017Z,4.70
2023-01-19T23:55:04.556Z,4.67
2023-01-19T23:59:54.755Z,4.67
